sensor_id;sensor_type;location;lat;lon;timestamp;pressure;altitude;pressure_sealevel;temperature;humidity
34482;BME280;20720;48.886;9.388;2022-07-21T00:00:59;99411.44;;;21.48;100.00
34482;BME280;20720;48.886;9.388;2022-07-21T00:03:25;99408.69;;;21.60;100.00
34482;BME280;20720;48.886;9.388;2022-07-21T00:05:50;99409.00;;;21.64;100.00
34482;BME280;20720;48.886;9.388;2022-07-21T00:08:15;99415.97;;;21.48;100.00
34482;BME280;20720;48.886;9.388;2022-07-21T00:10:40;99418.25;;;21.56;100.00
34482;BME280;20720;48.886;9.388;2022-07-21T00:13:06;99402.69;;;21.70;100.00
34482;BME280;20720;48.886;9.388;2022-07-21T00:15:31;99405.41;;;21.75;100.00
34482;BME280;20720;48.886;9.388;2022-07-21T00:17:56;99417.19;;;21.74;100.00
34482;BME280;20720;48.886;9.388;2022-07-21T00:20:22;99413.06;;;21.66;100.00
34482;BME280;20720;48.886;9.388;2022-07-21T00:22:47;99430.47;;;21.52;100.00
34482;BME280;20720;48.886;9.388;2022-07-21T00:25:13;99436.88;;;21.51;100.00
34482;BME280;20720;48.886;9.388;2022-07-21T00:27:39;99431.72;;;21.61;100.00
34482;BME280;20720;48.886;9.388;2022-07-21T00:30:05;99427.81;;;21.52;100.00
34482;BME280;20720;48.886;9.388;2022-07-21T00:32:31;99432.81;;;21.48;100.00
34482;BME280;20720;48.886;9.388;2022-07-21T00:34:56;99445.66;;;21.18;100.00
34482;BME280;20720;48.886;9.388;2022-07-21T00:37:21;99443.28;;;21.05;100.00
34482;BME280;20720;48.886;9.388;2022-07-21T00:39:49;99420.16;;;21.27;100.00
34482;BME280;20720;48.886;9.388;2022-07-21T00:42:21;99430.09;;;20.87;100.00
34482;BME280;20720;48.886;9.388;2022-07-21T00:44:46;99441.00;;;20.86;100.00
34482;BME280;20720;48.886;9.388;2022-07-21T00:47:12;99442.59;;;20.98;100.00
34482;BME280;20720;48.886;9.388;2022-07-21T00:49:39;99432.94;;;21.25;100.00
34482;BME280;20720;48.886;9.388;2022-07-21T00:52:05;99445.59;;;21.13;100.00
34482;BME280;20720;48.886;9.388;2022-07-21T00:54:30;99429.50;;;21.41;100.00
34482;BME280;20720;48.886;9.388;2022-07-21T00:56:56;99437.47;;;21.53;100.00
34482;BME280;20720;48.886;9.388;2022-07-21T00:59:21;99444.19;;;21.56;100.00
34482;BME280;20720;48.886;9.388;2022-07-21T01:01:46;99443.06;;;21.51;100.00
34482;BME280;20720;48.886;9.388;2022-07-21T01:04:11;99430.06;;;21.43;100.00
34482;BME280;20720;48.886;9.388;2022-07-21T01:06:36;99432.75;;;21.43;100.00
34482;BME280;20720;48.886;9.388;2022-07-21T01:09:02;99428.47;;;21.59;100.00
34482;BME280;20720;48.886;9.388;2022-07-21T01:11:27;99434.72;;;21.65;100.00
34482;BME280;20720;48.886;9.388;2022-07-21T01:13:52;99437.59;;;21.46;100.00
34482;BME280;20720;48.886;9.388;2022-07-21T01:16:18;99436.19;;;21.56;100.00
34482;BME280;20720;48.886;9.388;2022-07-21T01:18:43;99435.03;;;21.51;100.00
34482;BME280;20720;48.886;9.388;2022-07-21T01:21:28;99448.09;;;21.65;100.00
34482;BME280;20720;48.886;9.388;2022-07-21T01:23:53;99448.16;;;21.70;100.00
34482;BME280;20720;48.886;9.388;2022-07-21T01:26:18;99457.97;;;21.64;100.00
34482;BME280;20720;48.886;9.388;2022-07-21T01:28:44;99463.63;;;21.51;100.00
34482;BME280;20720;48.886;9.388;2022-07-21T01:31:09;99468.13;;;21.17;100.00
34482;BME280;20720;48.886;9.388;2022-07-21T01:33:34;99461.53;;;21.36;100.00
34482;BME280;20720;48.886;9.388;2022-07-21T01:35:59;99457.09;;;21.59;100.00
34482;BME280;20720;48.886;9.388;2022-07-21T01:38:24;99451.22;;;21.62;100.00
34482;BME280;20720;48.886;9.388;2022-07-21T01:41:08;99460.66;;;21.19;100.00
34482;BME280;20720;48.886;9.388;2022-07-21T01:43:52;99458.41;;;21.28;100.00
34482;BME280;20720;48.886;9.388;2022-07-21T01:46:17;99454.53;;;21.52;100.00
34482;BME280;20720;48.886;9.388;2022-07-21T01:48:43;99456.47;;;21.23;100.00
34482;BME280;20720;48.886;9.388;2022-07-21T01:51:08;99456.56;;;21.00;100.00
34482;BME280;20720;48.886;9.388;2022-07-21T01:53:34;99461.06;;;21.00;100.00
34482;BME280;20720;48.886;9.388;2022-07-21T01:55:59;99453.56;;;21.25;100.00
34482;BME280;20720;48.886;9.388;2022-07-21T01:58:24;99457.44;;;21.17;100.00
34482;BME280;20720;48.886;9.388;2022-07-21T02:00:49;99485.56;;;21.08;100.00
34482;BME280;20720;48.886;9.388;2022-07-21T02:03:14;99482.34;;;21.34;100.00
34482;BME280;20720;48.886;9.388;2022-07-21T02:05:40;99466.50;;;21.33;100.00
34482;BME280;20720;48.886;9.388;2022-07-21T02:08:05;99482.41;;;21.39;100.00
34482;BME280;20720;48.886;9.388;2022-07-21T02:10:30;99486.63;;;21.35;100.00
34482;BME280;20720;48.886;9.388;2022-07-21T02:12:55;99496.31;;;21.25;100.00
34482;BME280;20720;48.886;9.388;2022-07-21T02:15:20;99503.44;;;21.19;100.00
34482;BME280;20720;48.886;9.388;2022-07-21T02:17:45;99497.41;;;21.12;100.00
34482;BME280;20720;48.886;9.388;2022-07-21T02:20:11;99485.88;;;21.23;100.00
34482;BME280;20720;48.886;9.388;2022-07-21T02:22:36;99476.13;;;21.17;100.00
34482;BME280;20720;48.886;9.388;2022-07-21T02:25:01;99486.13;;;21.10;100.00
34482;BME280;20720;48.886;9.388;2022-07-21T02:27:26;99496.50;;;21.35;100.00
34482;BME280;20720;48.886;9.388;2022-07-21T02:29:52;99473.00;;;21.37;100.00
34482;BME280;20720;48.886;9.388;2022-07-21T02:32:17;99466.69;;;21.43;100.00
34482;BME280;20720;48.886;9.388;2022-07-21T02:34:42;99469.13;;;21.44;100.00
34482;BME280;20720;48.886;9.388;2022-07-21T02:37:07;99488.28;;;21.53;100.00
34482;BME280;20720;48.886;9.388;2022-07-21T02:39:32;99477.19;;;21.33;100.00
34482;BME280;20720;48.886;9.388;2022-07-21T02:41:57;99493.78;;;21.46;100.00
34482;BME280;20720;48.886;9.388;2022-07-21T02:44:24;99487.75;;;21.39;100.00
34482;BME280;20720;48.886;9.388;2022-07-21T02:46:49;99506.44;;;21.68;100.00
34482;BME280;20720;48.886;9.388;2022-07-21T02:49:14;99501.28;;;21.61;100.00
34482;BME280;20720;48.886;9.388;2022-07-21T02:51:39;99496.09;;;21.26;100.00
34482;BME280;20720;48.886;9.388;2022-07-21T02:54:04;99498.34;;;21.46;100.00
34482;BME280;20720;48.886;9.388;2022-07-21T02:56:30;99497.22;;;21.75;100.00
34482;BME280;20720;48.886;9.388;2022-07-21T02:58:55;99495.63;;;21.91;100.00
34482;BME280;20720;48.886;9.388;2022-07-21T03:01:20;99501.72;;;21.86;100.00
34482;BME280;20720;48.886;9.388;2022-07-21T03:03:45;99501.75;;;21.75;100.00
34482;BME280;20720;48.886;9.388;2022-07-21T03:06:10;99496.03;;;21.83;100.00
34482;BME280;20720;48.886;9.388;2022-07-21T03:08:36;99496.13;;;21.88;100.00
34482;BME280;20720;48.886;9.388;2022-07-21T03:11:01;99483.25;;;21.57;100.00
34482;BME280;20720;48.886;9.388;2022-07-21T03:13:28;99492.03;;;21.69;100.00
34482;BME280;20720;48.886;9.388;2022-07-21T03:15:53;99490.78;;;21.88;100.00
34482;BME280;20720;48.886;9.388;2022-07-21T03:18:18;99502.88;;;21.79;100.00
34482;BME280;20720;48.886;9.388;2022-07-21T03:20:43;99507.47;;;21.78;100.00
34482;BME280;20720;48.886;9.388;2022-07-21T03:23:09;99499.59;;;21.88;100.00
34482;BME280;20720;48.886;9.388;2022-07-21T03:25:34;99501.44;;;21.71;100.00
34482;BME280;20720;48.886;9.388;2022-07-21T03:27:59;99511.69;;;21.91;100.00
34482;BME280;20720;48.886;9.388;2022-07-21T03:30:25;99516.56;;;21.94;100.00
34482;BME280;20720;48.886;9.388;2022-07-21T03:32:51;99519.84;;;21.68;100.00
34482;BME280;20720;48.886;9.388;2022-07-21T03:35:17;99520.78;;;21.90;100.00
34482;BME280;20720;48.886;9.388;2022-07-21T03:37:44;99532.94;;;21.97;100.00
34482;BME280;20720;48.886;9.388;2022-07-21T03:40:13;99547.25;;;22.03;100.00
34482;BME280;20720;48.886;9.388;2022-07-21T03:42:38;99554.59;;;21.96;100.00
34482;BME280;20720;48.886;9.388;2022-07-21T03:45:04;99556.81;;;21.99;100.00
34482;BME280;20720;48.886;9.388;2022-07-21T03:47:29;99559.56;;;21.87;100.00
34482;BME280;20720;48.886;9.388;2022-07-21T03:49:54;99558.88;;;21.80;100.00
34482;BME280;20720;48.886;9.388;2022-07-21T03:52:20;99554.09;;;21.82;100.00
34482;BME280;20720;48.886;9.388;2022-07-21T03:54:45;99557.13;;;21.86;100.00
34482;BME280;20720;48.886;9.388;2022-07-21T03:57:10;99565.56;;;21.94;100.00
34482;BME280;20720;48.886;9.388;2022-07-21T03:59:35;99570.66;;;21.96;100.00
34482;BME280;20720;48.886;9.388;2022-07-21T04:02:00;99562.06;;;21.66;100.00
34482;BME280;20720;48.886;9.388;2022-07-21T04:04:26;99550.69;;;21.87;100.00
34482;BME280;20720;48.886;9.388;2022-07-21T04:06:51;99549.66;;;21.88;100.00
34482;BME280;20720;48.886;9.388;2022-07-21T04:09:16;99544.09;;;21.78;100.00
34482;BME280;20720;48.886;9.388;2022-07-21T04:11:42;99557.91;;;21.86;100.00
34482;BME280;20720;48.886;9.388;2022-07-21T04:14:07;99558.91;;;21.97;100.00
34482;BME280;20720;48.886;9.388;2022-07-21T04:16:32;99574.97;;;21.97;100.00
34482;BME280;20720;48.886;9.388;2022-07-21T04:18:58;99576.97;;;21.90;100.00
34482;BME280;20720;48.886;9.388;2022-07-21T04:21:23;99571.69;;;21.78;100.00
34482;BME280;20720;48.886;9.388;2022-07-21T04:23:48;99571.06;;;21.88;100.00
34482;BME280;20720;48.886;9.388;2022-07-21T04:26:13;99573.34;;;21.96;100.00
34482;BME280;20720;48.886;9.388;2022-07-21T04:28:39;99569.13;;;21.83;100.00
34482;BME280;20720;48.886;9.388;2022-07-21T04:31:04;99572.31;;;21.69;100.00
34482;BME280;20720;48.886;9.388;2022-07-21T04:33:29;99568.19;;;21.49;100.00
34482;BME280;20720;48.886;9.388;2022-07-21T04:35:54;99572.94;;;21.59;100.00
34482;BME280;20720;48.886;9.388;2022-07-21T04:38:19;99573.72;;;21.60;100.00
34482;BME280;20720;48.886;9.388;2022-07-21T04:40:45;99561.50;;;21.64;100.00
34482;BME280;20720;48.886;9.388;2022-07-21T04:43:10;99572.53;;;21.67;100.00
34482;BME280;20720;48.886;9.388;2022-07-21T04:45:35;99567.66;;;21.92;100.00
34482;BME280;20720;48.886;9.388;2022-07-21T04:48:00;99563.94;;;22.10;100.00
34482;BME280;20720;48.886;9.388;2022-07-21T04:50:26;99569.78;;;22.07;100.00
34482;BME280;20720;48.886;9.388;2022-07-21T04:52:51;99580.19;;;22.20;100.00
34482;BME280;20720;48.886;9.388;2022-07-21T04:55:17;99591.19;;;22.07;100.00
34482;BME280;20720;48.886;9.388;2022-07-21T04:57:43;99582.75;;;21.82;100.00
34482;BME280;20720;48.886;9.388;2022-07-21T05:00:09;99591.91;;;21.86;100.00
34482;BME280;20720;48.886;9.388;2022-07-21T05:02:35;99589.88;;;21.65;100.00
34482;BME280;20720;48.886;9.388;2022-07-21T05:05:00;99589.59;;;21.49;100.00
34482;BME280;20720;48.886;9.388;2022-07-21T05:07:26;99587.78;;;21.67;100.00
34482;BME280;20720;48.886;9.388;2022-07-21T05:09:51;99587.88;;;21.72;100.00
34482;BME280;20720;48.886;9.388;2022-07-21T05:12:17;99590.78;;;21.70;100.00
34482;BME280;20720;48.886;9.388;2022-07-21T05:14:42;99572.03;;;21.82;100.00
34482;BME280;20720;48.886;9.388;2022-07-21T05:17:07;99568.56;;;21.70;100.00
34482;BME280;20720;48.886;9.388;2022-07-21T05:19:32;99566.06;;;22.08;100.00
34482;BME280;20720;48.886;9.388;2022-07-21T05:21:57;99560.88;;;22.34;100.00
34482;BME280;20720;48.886;9.388;2022-07-21T05:24:22;99556.75;;;23.03;100.00
34482;BME280;20720;48.886;9.388;2022-07-21T05:26:48;99545.13;;;23.63;100.00
34482;BME280;20720;48.886;9.388;2022-07-21T05:29:13;99526.16;;;22.99;100.00
34482;BME280;20720;48.886;9.388;2022-07-21T05:31:38;99553.69;;;22.73;100.00
34482;BME280;20720;48.886;9.388;2022-07-21T05:34:03;99567.44;;;23.20;100.00
34482;BME280;20720;48.886;9.388;2022-07-21T05:36:28;99562.22;;;24.05;100.00
34482;BME280;20720;48.886;9.388;2022-07-21T05:38:54;99844.41;;;24.20;100.00
34482;BME280;20720;48.886;9.388;2022-07-21T05:41:19;99757.16;;;23.63;100.00
34482;BME280;20720;48.886;9.388;2022-07-21T05:43:44;99700.66;;;23.53;100.00
34482;BME280;20720;48.886;9.388;2022-07-21T05:46:09;99664.13;;;23.47;100.00
34482;BME280;20720;48.886;9.388;2022-07-21T05:48:34;99605.22;;;22.97;100.00
34482;BME280;20720;48.886;9.388;2022-07-21T05:51:00;99576.09;;;23.05;100.00
34482;BME280;20720;48.886;9.388;2022-07-21T05:53:25;99629.91;;;24.07;100.00
34482;BME280;20720;48.886;9.388;2022-07-21T05:55:50;99607.88;;;23.83;100.00
34482;BME280;20720;48.886;9.388;2022-07-21T05:58:15;99593.22;;;24.54;100.00
34482;BME280;20720;48.886;9.388;2022-07-21T06:00:43;99458.06;;;24.64;100.00
34482;BME280;20720;48.886;9.388;2022-07-21T06:03:08;99352.53;;;25.24;100.00
34482;BME280;20720;48.886;9.388;2022-07-21T06:05:33;99458.59;;;25.38;100.00
34482;BME280;20720;48.886;9.388;2022-07-21T06:07:58;99361.53;;;24.57;100.00
34482;BME280;20720;48.886;9.388;2022-07-21T06:10:26;99370.84;;;25.16;100.00
34482;BME280;20720;48.886;9.388;2022-07-21T06:12:51;99305.44;;;25.01;100.00
34482;BME280;20720;48.886;9.388;2022-07-21T06:15:16;99287.63;;;24.70;100.00
34482;BME280;20720;48.886;9.388;2022-07-21T06:17:42;99268.50;;;24.41;100.00
34482;BME280;20720;48.886;9.388;2022-07-21T06:20:08;99270.63;;;24.34;100.00
34482;BME280;20720;48.886;9.388;2022-07-21T06:22:33;99264.03;;;23.95;100.00
34482;BME280;20720;48.886;9.388;2022-07-21T06:24:58;99275.16;;;24.23;100.00
34482;BME280;20720;48.886;9.388;2022-07-21T06:27:23;99267.47;;;23.85;100.00
34482;BME280;20720;48.886;9.388;2022-07-21T06:29:49;99231.97;;;24.50;100.00
34482;BME280;20720;48.886;9.388;2022-07-21T06:32:14;99128.50;;;26.21;100.00
34482;BME280;20720;48.886;9.388;2022-07-21T06:34:39;98936.56;;;25.95;100.00
34482;BME280;20720;48.886;9.388;2022-07-21T06:37:04;98876.53;;;25.94;100.00
34482;BME280;20720;48.886;9.388;2022-07-21T06:39:29;98820.28;;;26.59;100.00
34482;BME280;20720;48.886;9.388;2022-07-21T06:41:55;98757.84;;;26.70;100.00
34482;BME280;20720;48.886;9.388;2022-07-21T06:44:20;98727.91;;;26.67;100.00
34482;BME280;20720;48.886;9.388;2022-07-21T06:46:45;98656.59;;;27.51;100.00
34482;BME280;20720;48.886;9.388;2022-07-21T06:49:10;98644.66;;;28.28;100.00
34482;BME280;20720;48.886;9.388;2022-07-21T06:51:35;98644.25;;;28.35;100.00
34482;BME280;20720;48.886;9.388;2022-07-21T06:54:00;98640.03;;;27.93;100.00
34482;BME280;20720;48.886;9.388;2022-07-21T06:56:26;98671.34;;;28.21;100.00
34482;BME280;20720;48.886;9.388;2022-07-21T06:58:51;98694.88;;;26.24;100.00
34482;BME280;20720;48.886;9.388;2022-07-21T07:01:16;98635.56;;;24.64;100.00
34482;BME280;20720;48.886;9.388;2022-07-21T07:03:43;98626.16;;;25.66;100.00
34482;BME280;20720;48.886;9.388;2022-07-21T07:06:09;98634.34;;;25.32;100.00
34482;BME280;20720;48.886;9.388;2022-07-21T07:08:34;98630.84;;;25.32;100.00
34482;BME280;20720;48.886;9.388;2022-07-21T07:10:59;98640.03;;;26.15;100.00
34482;BME280;20720;48.886;9.388;2022-07-21T07:13:25;98643.03;;;26.32;100.00
34482;BME280;20720;48.886;9.388;2022-07-21T07:15:50;98650.75;;;27.17;100.00
34482;BME280;20720;48.886;9.388;2022-07-21T07:18:15;98677.91;;;26.93;100.00
34482;BME280;20720;48.886;9.388;2022-07-21T07:20:40;98684.84;;;26.80;100.00
34482;BME280;20720;48.886;9.388;2022-07-21T07:23:05;98695.28;;;27.73;100.00
34482;BME280;20720;48.886;9.388;2022-07-21T07:25:31;98702.56;;;28.27;100.00
34482;BME280;20720;48.886;9.388;2022-07-21T07:27:57;98718.22;;;27.76;100.00
34482;BME280;20720;48.886;9.388;2022-07-21T07:30:22;98737.59;;;29.34;100.00
34482;BME280;20720;48.886;9.388;2022-07-21T07:32:48;98767.94;;;28.78;100.00
34482;BME280;20720;48.886;9.388;2022-07-21T07:35:13;98780.28;;;28.22;100.00
34482;BME280;20720;48.886;9.388;2022-07-21T07:37:40;98782.31;;;27.84;100.00
34482;BME280;20720;48.886;9.388;2022-07-21T07:40:06;98771.97;;;26.44;100.00
34482;BME280;20720;48.886;9.388;2022-07-21T07:42:32;98772.59;;;27.24;100.00
34482;BME280;20720;48.886;9.388;2022-07-21T07:44:57;98763.63;;;26.40;100.00
34482;BME280;20720;48.886;9.388;2022-07-21T07:47:23;98755.41;;;27.79;100.00
34482;BME280;20720;48.886;9.388;2022-07-21T07:49:48;98776.19;;;27.38;100.00
34482;BME280;20720;48.886;9.388;2022-07-21T07:52:16;98769.81;;;27.88;100.00
34482;BME280;20720;48.886;9.388;2022-07-21T07:54:41;98772.81;;;28.54;100.00
34482;BME280;20720;48.886;9.388;2022-07-21T07:57:06;98775.97;;;28.07;100.00
34482;BME280;20720;48.886;9.388;2022-07-21T07:59:31;98770.66;;;28.29;100.00
34482;BME280;20720;48.886;9.388;2022-07-21T08:01:56;98778.09;;;27.19;100.00
34482;BME280;20720;48.886;9.388;2022-07-21T08:04:21;98777.13;;;27.60;100.00
34482;BME280;20720;48.886;9.388;2022-07-21T08:06:47;98779.97;;;27.96;100.00
34482;BME280;20720;48.886;9.388;2022-07-21T08:09:12;98788.63;;;27.66;100.00
34482;BME280;20720;48.886;9.388;2022-07-21T08:11:39;98786.94;;;28.87;100.00
34482;BME280;20720;48.886;9.388;2022-07-21T08:14:04;98797.78;;;28.11;100.00
34482;BME280;20720;48.886;9.388;2022-07-21T08:16:30;98787.63;;;27.75;100.00
34482;BME280;20720;48.886;9.388;2022-07-21T08:18:55;98788.75;;;28.29;100.00
34482;BME280;20720;48.886;9.388;2022-07-21T08:21:21;98788.81;;;29.53;100.00
34482;BME280;20720;48.886;9.388;2022-07-21T08:23:46;98791.13;;;30.46;100.00
34482;BME280;20720;48.886;9.388;2022-07-21T08:26:11;98821.97;;;29.50;100.00
34482;BME280;20720;48.886;9.388;2022-07-21T08:28:36;98806.81;;;29.05;100.00
34482;BME280;20720;48.886;9.388;2022-07-21T08:31:01;98808.19;;;29.38;100.00
34482;BME280;20720;48.886;9.388;2022-07-21T08:33:27;98808.31;;;29.11;100.00
34482;BME280;20720;48.886;9.388;2022-07-21T08:35:52;98802.25;;;27.88;100.00
34482;BME280;20720;48.886;9.388;2022-07-21T08:38:18;98800.38;;;26.92;100.00
34482;BME280;20720;48.886;9.388;2022-07-21T08:40:45;98793.94;;;27.07;100.00
34482;BME280;20720;48.886;9.388;2022-07-21T08:43:11;98792.00;;;27.58;100.00
34482;BME280;20720;48.886;9.388;2022-07-21T08:45:38;98801.25;;;26.87;100.00
34482;BME280;20720;48.886;9.388;2022-07-21T08:48:03;98796.22;;;27.64;100.00
34482;BME280;20720;48.886;9.388;2022-07-21T08:50:30;98799.47;;;27.93;100.00
34482;BME280;20720;48.886;9.388;2022-07-21T08:52:55;98792.78;;;28.04;100.00
34482;BME280;20720;48.886;9.388;2022-07-21T08:55:21;98793.00;;;28.70;100.00
34482;BME280;20720;48.886;9.388;2022-07-21T08:57:46;98792.53;;;28.91;100.00
34482;BME280;20720;48.886;9.388;2022-07-21T09:00:12;98803.56;;;28.58;100.00
34482;BME280;20720;48.886;9.388;2022-07-21T09:02:37;98803.47;;;28.36;100.00
34482;BME280;20720;48.886;9.388;2022-07-21T09:05:03;98812.78;;;28.30;91.72
34482;BME280;20720;48.886;9.388;2022-07-21T09:07:46;98835.31;;;29.99;83.06
34482;BME280;20720;48.886;9.388;2022-07-21T09:10:11;98853.16;;;30.00;79.69
34482;BME280;20720;48.886;9.388;2022-07-21T09:12:47;98852.50;;;31.50;72.04
34482;BME280;20720;48.886;9.388;2022-07-21T09:15:13;98852.13;;;29.57;83.58
34482;BME280;20720;48.886;9.388;2022-07-21T09:17:39;98860.53;;;30.39;77.93
34482;BME280;20720;48.886;9.388;2022-07-21T09:20:04;98853.69;;;28.92;78.67
34482;BME280;20720;48.886;9.388;2022-07-21T09:23:00;98855.47;;;30.54;77.35
34482;BME280;20720;48.886;9.388;2022-07-21T09:28:07;98861.72;;;30.24;75.83
34482;BME280;20720;48.886;9.388;2022-07-21T09:30:46;98848.69;;;31.00;73.49
34482;BME280;20720;48.886;9.388;2022-07-21T09:33:18;98852.97;;;31.35;67.64
34482;BME280;20720;48.886;9.388;2022-07-21T09:35:54;98853.84;;;30.45;72.96
34482;BME280;20720;48.886;9.388;2022-07-21T09:38:19;98866.44;;;29.71;78.15
34482;BME280;20720;48.886;9.388;2022-07-21T09:40:47;98859.25;;;29.53;74.13
34482;BME280;20720;48.886;9.388;2022-07-21T09:43:27;98864.31;;;29.90;77.33
34482;BME280;20720;48.886;9.388;2022-07-21T09:45:54;98854.94;;;30.35;74.96
34482;BME280;20720;48.886;9.388;2022-07-21T09:48:32;98864.34;;;31.28;69.21
34482;BME280;20720;48.886;9.388;2022-07-21T09:51:09;98864.91;;;34.08;60.15
34482;BME280;20720;48.886;9.388;2022-07-21T09:56:17;98860.72;;;32.34;62.35
34482;BME280;20720;48.886;9.388;2022-07-21T09:58:44;98858.41;;;31.18;66.77
34482;BME280;20720;48.886;9.388;2022-07-21T10:01:10;98862.06;;;31.56;67.66
34482;BME280;20720;48.886;9.388;2022-07-21T10:03:35;98864.81;;;30.31;73.54
34482;BME280;20720;48.886;9.388;2022-07-21T10:06:02;98861.22;;;29.61;75.39
34482;BME280;20720;48.886;9.388;2022-07-21T10:08:27;98856.59;;;30.71;70.03
34482;BME280;20720;48.886;9.388;2022-07-21T10:10:52;98859.16;;;32.83;62.43
34482;BME280;20720;48.886;9.388;2022-07-21T10:13:18;98861.38;;;33.63;57.97
34482;BME280;20720;48.886;9.388;2022-07-21T10:15:45;98859.31;;;33.60;58.09
34482;BME280;20720;48.886;9.388;2022-07-21T10:18:11;98856.63;;;32.78;57.33
34482;BME280;20720;48.886;9.388;2022-07-21T10:20:38;98858.22;;;29.40;69.65
34482;BME280;20720;48.886;9.388;2022-07-21T10:23:06;98858.69;;;29.87;74.05
34482;BME280;20720;48.886;9.388;2022-07-21T10:25:35;98856.47;;;31.61;69.80
34482;BME280;20720;48.886;9.388;2022-07-21T10:30:38;98847.88;;;31.16;71.13
34482;BME280;20720;48.886;9.388;2022-07-21T10:33:03;98843.06;;;30.88;73.35
34482;BME280;20720;48.886;9.388;2022-07-21T10:35:29;98852.66;;;31.11;72.71
34482;BME280;20720;48.886;9.388;2022-07-21T10:37:55;98842.72;;;32.71;64.98
34482;BME280;20720;48.886;9.388;2022-07-21T10:45:41;98841.84;;;31.91;62.92
34482;BME280;20720;48.886;9.388;2022-07-21T10:48:08;98827.59;;;28.96;83.45
34482;BME280;20720;48.886;9.388;2022-07-21T10:50:53;98845.72;;;33.84;65.27
34482;BME280;20720;48.886;9.388;2022-07-21T10:53:22;98838.34;;;35.33;56.62
34482;BME280;20720;48.886;9.388;2022-07-21T10:55:48;98836.31;;;36.36;53.63
34482;BME280;20720;48.886;9.388;2022-07-21T10:58:20;98838.28;;;36.51;50.26
34482;BME280;20720;48.886;9.388;2022-07-21T11:00:49;98837.00;;;33.25;61.51
34482;BME280;20720;48.886;9.388;2022-07-21T11:08:31;98831.72;;;34.43;53.80
34482;BME280;20720;48.886;9.388;2022-07-21T11:11:06;98826.31;;;32.00;62.34
34482;BME280;20720;48.886;9.388;2022-07-21T11:13:56;98828.97;;;34.31;59.61
34482;BME280;20720;48.886;9.388;2022-07-21T11:16:16;98824.69;;;33.61;59.11
34482;BME280;20720;48.886;9.388;2022-07-21T11:18:42;98816.06;;;35.47;53.45
34482;BME280;20720;48.886;9.388;2022-07-21T11:21:09;98818.81;;;36.56;48.10
34482;BME280;20720;48.886;9.388;2022-07-21T11:23:35;98820.03;;;34.82;48.72
34482;BME280;20720;48.886;9.388;2022-07-21T11:26:01;98807.41;;;35.17;47.16
34482;BME280;20720;48.886;9.388;2022-07-21T11:28:26;98812.19;;;35.20;49.72
34482;BME280;20720;48.886;9.388;2022-07-21T11:31:05;98819.41;;;34.37;51.35
34482;BME280;20720;48.886;9.388;2022-07-21T11:33:30;98807.59;;;34.21;52.82
34482;BME280;20720;48.886;9.388;2022-07-21T11:35:55;98799.53;;;34.12;52.20
34482;BME280;20720;48.886;9.388;2022-07-21T11:38:20;98803.31;;;32.18;55.28
34482;BME280;20720;48.886;9.388;2022-07-21T11:40:45;98804.41;;;34.43;51.45
34482;BME280;20720;48.886;9.388;2022-07-21T11:43:11;98799.44;;;35.67;50.81
34482;BME280;20720;48.886;9.388;2022-07-21T11:45:36;98799.28;;;34.93;45.73
34482;BME280;20720;48.886;9.388;2022-07-21T11:48:01;98800.28;;;36.34;44.42
34482;BME280;20720;48.886;9.388;2022-07-21T11:50:27;98790.47;;;33.51;50.97
34482;BME280;20720;48.886;9.388;2022-07-21T11:52:53;98791.56;;;34.83;47.80
34482;BME280;20720;48.886;9.388;2022-07-21T11:55:18;98782.19;;;34.68;49.24
34482;BME280;20720;48.886;9.388;2022-07-21T11:57:44;98784.63;;;33.97;49.90
34482;BME280;20720;48.886;9.388;2022-07-21T12:00:10;98778.94;;;32.30;54.35
34482;BME280;20720;48.886;9.388;2022-07-21T12:02:35;98782.19;;;31.86;59.60
34482;BME280;20720;48.886;9.388;2022-07-21T12:05:02;98785.69;;;31.95;62.62
34482;BME280;20720;48.886;9.388;2022-07-21T12:09:57;98782.50;;;32.22;58.39
34482;BME280;20720;48.886;9.388;2022-07-21T12:12:34;98783.47;;;34.35;54.15
34482;BME280;20720;48.886;9.388;2022-07-21T12:15:10;98772.41;;;37.01;45.90
34482;BME280;20720;48.886;9.388;2022-07-21T12:17:36;98775.72;;;37.10;43.54
34482;BME280;20720;48.886;9.388;2022-07-21T12:20:03;98770.94;;;36.00;42.71
34482;BME280;20720;48.886;9.388;2022-07-21T12:22:41;98764.72;;;36.53;43.40
34482;BME280;20720;48.886;9.388;2022-07-21T12:25:09;98767.81;;;36.86;44.39
34482;BME280;20720;48.886;9.388;2022-07-21T12:27:36;98773.31;;;37.47;41.92
34482;BME280;20720;48.886;9.388;2022-07-21T12:30:02;98764.91;;;35.20;46.76
34482;BME280;20720;48.886;9.388;2022-07-21T12:33:28;98770.97;;;33.85;51.06
34482;BME280;20720;48.886;9.388;2022-07-21T12:35:24;98767.94;;;33.42;52.71
34482;BME280;20720;48.886;9.388;2022-07-21T12:37:57;98774.19;;;32.89;53.99
34482;BME280;20720;48.886;9.388;2022-07-21T12:40:22;98770.09;;;32.83;56.35
34482;BME280;20720;48.886;9.388;2022-07-21T12:42:48;98771.50;;;31.81;57.57
34482;BME280;20720;48.886;9.388;2022-07-21T12:45:15;98763.84;;;31.11;62.96
34482;BME280;20720;48.886;9.388;2022-07-21T12:47:41;98776.13;;;31.81;59.74
34482;BME280;20720;48.886;9.388;2022-07-21T12:50:07;98767.00;;;31.85;61.18
34482;BME280;20720;48.886;9.388;2022-07-21T12:52:33;98771.63;;;33.70;54.19
34482;BME280;20720;48.886;9.388;2022-07-21T12:54:59;98769.78;;;34.59;50.51
34482;BME280;20720;48.886;9.388;2022-07-21T12:57:28;98773.47;;;33.78;50.84
34482;BME280;20720;48.886;9.388;2022-07-21T12:59:54;98770.41;;;32.11;54.96
34482;BME280;20720;48.886;9.388;2022-07-21T13:02:19;98771.88;;;32.29;57.68
34482;BME280;20720;48.886;9.388;2022-07-21T13:04:45;98775.84;;;32.11;59.33
34482;BME280;20720;48.886;9.388;2022-07-21T13:07:10;98773.09;;;32.40;59.65
34482;BME280;20720;48.886;9.388;2022-07-21T13:09:35;98770.22;;;35.28;50.14